createdAt,value
2022-11-17T00:02:13.087Z,9.10
2022-11-17T00:04:39.674Z,10.05
2022-11-17T00:07:06.120Z,9.63
2022-11-17T00:09:32.565Z,10.02
2022-11-17T00:12:22.360Z,10.75
2022-11-17T00:14:49.207Z,9.57
2022-11-17T00:17:15.570Z,9.45
2022-11-17T00:20:00.580Z,9.90
2022-11-17T00:22:31.129Z,10.45
2022-11-17T00:24:57.656Z,10.40
2022-11-17T00:27:24.066Z,13.75
2022-11-17T00:29:50.597Z,16.17
2022-11-17T00:32:37.399Z,14.20
2022-11-17T00:35:05.197Z,17.30
2022-11-17T00:37:35.848Z,12.05
2022-11-17T00:40:02.250Z,12.45
2022-11-17T00:42:28.628Z,14.32
2022-11-17T00:44:54.988Z,11.55
2022-11-17T00:47:21.517Z,12.98
2022-11-17T00:49:48.166Z,10.77
2022-11-17T00:52:14.595Z,10.90
2022-11-17T00:54:40.985Z,10.73
2022-11-17T00:57:07.368Z,10.52
2022-11-17T00:59:33.780Z,9.73
2022-11-17T01:02:00.354Z,9.43
2022-11-17T01:04:26.797Z,10.32
2022-11-17T01:06:53.319Z,9.07
2022-11-17T01:09:22.285Z,9.95
2022-11-17T01:11:50.815Z,8.80
2022-11-17T01:14:26.315Z,8.95
2022-11-17T01:16:53.545Z,9.57
2022-11-17T01:19:20.663Z,9.68
2022-11-17T01:21:47.372Z,9.52
2022-11-17T01:24:16.099Z,10.18
2022-11-17T01:26:44.067Z,9.63
2022-11-17T01:29:12.884Z,9.85
2022-11-17T01:31:43.334Z,9.73
2022-11-17T01:34:10.542Z,8.55
2022-11-17T01:36:57.984Z,8.73
2022-11-17T01:39:25.906Z,9.57
2022-11-17T01:41:53.112Z,10.27
2022-11-17T01:44:53.052Z,10.02
2022-11-17T01:47:28.556Z,8.73
2022-11-17T01:50:01.097Z,9.32
2022-11-17T01:52:29.539Z,8.73
2022-11-17T01:54:58.999Z,8.88
2022-11-17T01:57:32.979Z,9.73
2022-11-17T02:00:04.241Z,9.98
2022-11-17T02:02:31.272Z,9.52
2022-11-17T02:05:33.533Z,9.52
2022-11-17T02:08:02.248Z,8.68
2022-11-17T02:10:30.950Z,9.43
2022-11-17T02:12:58.799Z,8.52
2022-11-17T02:15:26.669Z,9.63
2022-11-17T02:17:54.184Z,9.35
2022-11-17T02:20:30.705Z,9.05
2022-11-17T02:23:24.642Z,8.38
2022-11-17T02:26:27.268Z,8.40
2022-11-17T02:29:08.011Z,8.63
2022-11-17T02:32:02.819Z,8.32
2022-11-17T02:34:47.387Z,7.88
2022-11-17T02:37:52.142Z,8.82
2022-11-17T02:40:27.709Z,8.10
2022-11-17T02:43:18.963Z,7.45
2022-11-17T02:45:52.057Z,7.68
2022-11-17T02:48:26.789Z,7.38
2022-11-17T02:50:55.018Z,7.63
2022-11-17T02:53:24.170Z,7.70
2022-11-17T02:55:53.278Z,8.13
2022-11-17T02:58:20.426Z,7.55
2022-11-17T03:01:18.660Z,7.85
2022-11-17T03:03:57.697Z,8.10
2022-11-17T03:06:41.422Z,7.68
2022-11-17T03:09:29.717Z,7.80
2022-11-17T03:12:16.317Z,7.75
2022-11-17T03:15:07.176Z,8.80
2022-11-17T03:17:56.797Z,7.90
2022-11-17T03:20:29.339Z,9.10
2022-11-17T03:23:11.610Z,9.85
2022-11-17T03:25:45.477Z,10.25
2022-11-17T03:28:13.660Z,8.90
2022-11-17T03:30:42.863Z,9.45
2022-11-17T03:33:15.403Z,9.50
2022-11-17T03:35:50.777Z,9.48
2022-11-17T03:38:20.607Z,12.20
2022-11-17T03:40:50.919Z,8.57
2022-11-17T03:43:20.234Z,10.15
2022-11-17T03:45:53.941Z,8.98
2022-11-17T03:51:12.604Z,9.27
2022-11-17T03:56:27.677Z,8.40
2022-11-17T03:59:01.564Z,10.18
2022-11-17T04:01:30.458Z,9.45
2022-11-17T04:03:57.016Z,8.93
2022-11-17T04:06:23.485Z,9.07
2022-11-17T04:08:49.880Z,9.05
2022-11-17T04:11:35.063Z,9.40
2022-11-17T04:14:19.794Z,9.82
2022-11-17T04:16:46.374Z,9.82
2022-11-17T04:19:13.064Z,9.98
2022-11-17T04:21:39.457Z,8.95
2022-11-17T04:24:06.479Z,8.65
2022-11-17T04:26:51.324Z,9.70
2022-11-17T04:29:17.734Z,8.93
2022-11-17T04:31:44.148Z,9.50
2022-11-17T04:34:10.547Z,9.00
2022-11-17T04:36:43.284Z,9.10
2022-11-17T04:39:10.710Z,9.77
2022-11-17T04:41:57.100Z,9.85
2022-11-17T04:44:28.865Z,9.32
2022-11-17T04:47:06.064Z,9.43
2022-11-17T04:49:33.313Z,8.98
2022-11-17T04:52:00.492Z,9.45
2022-11-17T04:54:27.659Z,7.80
2022-11-17T04:56:55.055Z,9.75
2022-11-17T04:59:21.604Z,9.52
2022-11-17T05:01:51.782Z,8.35
2022-11-17T05:04:45.422Z,8.30
2022-11-17T05:07:15.795Z,9.02
2022-11-17T05:09:44.602Z,8.93
2022-11-17T05:12:29.669Z,8.40
2022-11-17T05:14:56.849Z,9.38
2022-11-17T05:17:23.308Z,8.95
2022-11-17T05:19:49.746Z,8.77
2022-11-17T05:22:38.029Z,8.70
2022-11-17T05:25:05.627Z,9.43
2022-11-17T05:27:33.894Z,8.45
2022-11-17T05:30:01.329Z,9.00
2022-11-17T05:32:27.740Z,9.20
2022-11-17T05:34:54.152Z,9.23
2022-11-17T05:37:24.824Z,8.27
2022-11-17T05:39:51.205Z,8.32
2022-11-17T05:42:17.615Z,8.10
2022-11-17T05:44:44.044Z,8.82
2022-11-17T05:47:10.434Z,8.35
2022-11-17T05:49:36.907Z,7.68
2022-11-17T05:52:03.357Z,8.00
2022-11-17T05:54:29.814Z,8.10
2022-11-17T05:57:02.975Z,7.80
2022-11-17T05:59:55.158Z,7.38
2022-11-17T06:02:29.450Z,6.72
2022-11-17T06:04:55.827Z,7.85
2022-11-17T06:07:22.464Z,6.38
2022-11-17T06:09:50.842Z,7.47
2022-11-17T06:12:17.288Z,7.10
2022-11-17T06:14:43.838Z,7.25
2022-11-17T06:17:22.744Z,6.85
2022-11-17T06:19:55.729Z,8.05
2022-11-17T06:22:22.517Z,7.30
2022-11-17T06:24:49.016Z,8.00
2022-11-17T06:27:16.823Z,8.27
2022-11-17T06:29:45.080Z,8.55
2022-11-17T06:32:16.162Z,7.55
2022-11-17T06:34:47.985Z,7.45
2022-11-17T06:37:16.987Z,7.45
2022-11-17T06:39:43.425Z,8.55
2022-11-17T06:42:09.817Z,8.10
2022-11-17T06:44:36.318Z,8.50
2022-11-17T06:47:02.687Z,7.57
2022-11-17T06:49:29.391Z,8.35
2022-11-17T06:51:55.788Z,7.85
2022-11-17T06:54:22.213Z,7.03
2022-11-17T06:56:49.719Z,7.00
2022-11-17T06:59:16.157Z,7.63
2022-11-17T07:01:43.358Z,7.50
2022-11-17T07:04:09.988Z,7.20
2022-11-17T07:06:37.264Z,8.13
2022-11-17T07:09:04.958Z,7.88
2022-11-17T07:11:34.802Z,7.25
2022-11-17T07:14:01.191Z,7.32
2022-11-17T07:16:29.160Z,8.05
2022-11-17T07:18:55.682Z,7.57
2022-11-17T07:21:22.462Z,7.53
2022-11-17T07:23:48.841Z,8.25
2022-11-17T07:26:15.215Z,7.65
2022-11-17T07:28:41.603Z,7.90
2022-11-17T07:31:09.238Z,9.15
2022-11-17T07:33:36.800Z,8.10
2022-11-17T07:36:09.628Z,8.40
2022-11-17T07:38:38.005Z,8.50
2022-11-17T07:41:05.387Z,9.25
2022-11-17T07:43:34.278Z,8.10
2022-11-17T07:46:08.573Z,8.82
2022-11-17T07:48:36.135Z,8.25
2022-11-17T07:51:04.720Z,9.45
2022-11-17T07:53:33.480Z,8.02
2022-11-17T07:56:05.003Z,8.50
2022-11-17T07:58:32.354Z,8.38
2022-11-17T08:00:58.902Z,8.98
2022-11-17T08:03:25.425Z,8.85
2022-11-17T08:05:53.325Z,8.32
2022-11-17T08:08:19.746Z,8.52
2022-11-17T08:10:46.189Z,8.80
2022-11-17T08:13:14.093Z,8.60
2022-11-17T08:15:40.477Z,8.82
2022-11-17T08:18:06.920Z,9.48
2022-11-17T08:20:33.801Z,9.32
2022-11-17T08:23:00.201Z,8.93
2022-11-17T08:25:27.398Z,8.55
2022-11-17T08:27:57.974Z,9.00
2022-11-17T08:30:26.013Z,8.68
2022-11-17T08:32:54.406Z,8.15
2022-11-17T08:35:23.175Z,7.72
2022-11-17T08:37:49.670Z,8.23
2022-11-17T08:40:18.014Z,7.82
2022-11-17T08:42:44.687Z,7.88
2022-11-17T08:45:11.769Z,7.82
2022-11-17T08:47:38.446Z,7.25
2022-11-17T08:50:06.913Z,7.78
2022-11-17T08:52:33.355Z,7.72
2022-11-17T08:54:59.916Z,7.60
2022-11-17T08:57:26.471Z,7.70
2022-11-17T08:59:52.873Z,8.55
2022-11-17T09:02:19.383Z,7.38
2022-11-17T09:04:46.555Z,7.45
2022-11-17T09:07:13.267Z,7.93
2022-11-17T09:09:39.819Z,7.70
2022-11-17T09:12:06.329Z,7.10
2022-11-17T09:14:32.968Z,7.55
2022-11-17T09:16:59.411Z,7.20
2022-11-17T09:19:25.885Z,7.68
2022-11-17T09:21:52.253Z,7.78
2022-11-17T09:24:18.694Z,8.63
2022-11-17T09:26:45.090Z,7.32
2022-11-17T09:29:11.656Z,8.32
2022-11-17T09:31:38.348Z,7.72
2022-11-17T09:34:05.825Z,8.05
2022-11-17T09:36:33.333Z,7.82
2022-11-17T09:38:59.818Z,7.30
2022-11-17T09:41:41.744Z,7.60
2022-11-17T09:44:29.399Z,7.20
2022-11-17T09:47:07.039Z,7.07
2022-11-17T09:49:45.662Z,7.40
2022-11-17T09:52:27.619Z,7.07
2022-11-17T09:55:00.712Z,6.22
2022-11-17T09:57:45.499Z,6.85
2022-11-17T10:00:22.773Z,5.53
2022-11-17T10:02:51.520Z,5.80
2022-11-17T10:05:34.013Z,7.38
2022-11-17T10:08:06.653Z,5.40
2022-11-17T10:10:46.854Z,4.82
2022-11-17T10:13:27.990Z,4.47
2022-11-17T10:16:00.372Z,4.75
2022-11-17T10:18:28.024Z,4.88
2022-11-17T10:20:54.406Z,3.70
2022-11-17T10:23:22.018Z,4.30
2022-11-17T10:25:56.385Z,4.10
2022-11-17T10:28:33.008Z,5.00
2022-11-17T10:31:01.367Z,5.22
2022-11-17T10:33:35.322Z,4.07
2022-11-17T10:36:02.914Z,4.07
2022-11-17T10:38:30.749Z,4.22
2022-11-17T10:41:00.429Z,3.35
2022-11-17T10:43:33.803Z,3.10
2022-11-17T10:46:14.465Z,3.15
2022-11-17T10:49:00.947Z,3.05
2022-11-17T10:51:34.366Z,3.63
2022-11-17T10:54:06.475Z,3.28
2022-11-17T10:56:40.120Z,3.08
2022-11-17T11:01:41.847Z,3.00
2022-11-17T11:04:28.158Z,3.40
2022-11-17T11:07:14.258Z,3.70
2022-11-17T11:09:55.968Z,3.92
2022-11-17T11:12:34.906Z,2.83
2022-11-17T11:15:03.157Z,2.20
2022-11-17T11:17:29.878Z,3.72
2022-11-17T11:19:56.748Z,2.38
2022-11-17T11:22:33.091Z,2.40
2022-11-17T11:25:36.225Z,3.55
2022-11-17T11:28:20.197Z,1.90
2022-11-17T11:33:41.426Z,1.90
2022-11-17T11:36:29.762Z,1.60
2022-11-17T11:39:16.451Z,1.83
2022-11-17T11:42:07.965Z,1.60
2022-11-17T11:44:48.441Z,1.67
2022-11-17T11:47:36.845Z,1.60
2022-11-17T11:50:06.302Z,1.60
2022-11-17T11:52:38.061Z,1.67
2022-11-17T11:55:31.974Z,2.35
2022-11-17T11:58:13.908Z,1.60
2022-11-17T12:00:42.794Z,1.70
2022-11-17T12:03:33.711Z,2.17
2022-11-17T12:06:25.041Z,1.92
2022-11-17T12:09:08.670Z,2.25
2022-11-17T12:11:57.913Z,2.03
2022-11-17T12:14:24.659Z,2.15
2022-11-17T12:17:01.581Z,2.10
2022-11-17T12:19:59.687Z,1.90
2022-11-17T12:22:28.806Z,1.60
2022-11-17T12:24:57.663Z,2.08
2022-11-17T12:27:33.305Z,1.85
2022-11-17T12:30:00.660Z,1.90
2022-11-17T12:32:44.937Z,2.20
2022-11-17T12:35:39.054Z,1.95
2022-11-17T12:38:31.230Z,1.90
2022-11-17T12:40:57.599Z,1.90
2022-11-17T12:43:26.080Z,2.63
2022-11-17T12:45:52.373Z,2.58
2022-11-17T12:48:33.804Z,3.78
2022-11-17T12:51:21.778Z,2.95
2022-11-17T12:53:56.150Z,2.33
2022-11-17T12:56:37.321Z,1.90
2022-11-17T12:59:23.836Z,2.13
2022-11-17T13:02:11.528Z,1.40
2022-11-17T13:04:49.414Z,1.20
2022-11-17T13:07:22.107Z,1.88
2022-11-17T13:09:54.330Z,1.45
2022-11-17T13:12:26.386Z,1.73
2022-11-17T13:14:58.603Z,2.03
2022-11-17T13:17:42.745Z,1.40
2022-11-17T13:20:29.780Z,1.17
2022-11-17T13:23:25.784Z,1.60
2022-11-17T13:26:18.399Z,1.27
2022-11-17T13:28:46.038Z,1.27
2022-11-17T13:31:18.429Z,1.33
2022-11-17T13:33:56.694Z,1.88
2022-11-17T13:36:27.105Z,1.60
2022-11-17T13:38:57.290Z,1.42
2022-11-17T13:41:25.728Z,1.73
2022-11-17T13:43:53.739Z,1.30
2022-11-17T13:46:20.775Z,1.55
2022-11-17T13:48:49.783Z,1.25
2022-11-17T13:51:35.053Z,1.77
2022-11-17T13:54:06.869Z,1.40
2022-11-17T13:56:41.204Z,2.00
2022-11-17T13:59:28.514Z,1.52
2022-11-17T14:02:16.697Z,1.25
2022-11-17T14:05:15.119Z,1.80
2022-11-17T14:07:43.493Z,1.73
2022-11-17T14:10:22.340Z,1.60
2022-11-17T14:12:53.883Z,1.70
2022-11-17T14:15:29.278Z,1.35
2022-11-17T14:18:01.023Z,1.40
2022-11-17T14:20:35.349Z,1.58
2022-11-17T14:23:15.877Z,1.10
2022-11-17T14:25:44.878Z,1.20
2022-11-17T14:28:16.169Z,1.30
2022-11-17T14:30:42.902Z,1.80
2022-11-17T14:33:13.630Z,1.55
2022-11-17T14:35:40.910Z,1.30
2022-11-17T14:38:10.421Z,1.63
2022-11-17T14:40:36.817Z,1.50
2022-11-17T14:43:03.217Z,1.45
2022-11-17T14:45:29.840Z,1.92
2022-11-17T14:47:56.529Z,1.80
2022-11-17T14:50:23.066Z,2.00
2022-11-17T14:52:49.435Z,1.83
2022-11-17T14:55:15.883Z,1.70
2022-11-17T14:57:42.337Z,1.88
2022-11-17T15:00:11.025Z,2.17
2022-11-17T15:02:40.507Z,1.90
2022-11-17T15:05:07.415Z,1.77
2022-11-17T15:07:33.902Z,3.15
2022-11-17T15:10:00.473Z,2.00
2022-11-17T15:12:26.947Z,1.83
2022-11-17T15:14:53.645Z,1.75
2022-11-17T15:17:20.140Z,1.98
2022-11-17T15:19:46.558Z,1.85
2022-11-17T15:22:13.164Z,2.30
2022-11-17T15:24:39.739Z,1.65
2022-11-17T15:27:06.247Z,1.70
2022-11-17T15:29:32.925Z,1.40
2022-11-17T15:31:59.371Z,2.17
2022-11-17T15:34:25.859Z,1.92
2022-11-17T15:36:52.385Z,2.53
2022-11-17T15:39:19.255Z,2.47
2022-11-17T15:41:45.767Z,3.20
2022-11-17T15:44:12.176Z,2.92
2022-11-17T15:46:42.918Z,2.38
2022-11-17T15:49:12.407Z,2.83
2022-11-17T15:51:38.810Z,2.72
2022-11-17T15:54:05.302Z,2.75
2022-11-17T15:56:38.572Z,3.58
2022-11-17T15:59:06.366Z,3.25
2022-11-17T16:01:34.598Z,4.13
2022-11-17T16:04:09.207Z,3.13
2022-11-17T16:06:38.352Z,3.90
2022-11-17T16:09:06.573Z,4.13
2022-11-17T16:11:36.579Z,3.70
2022-11-17T16:14:04.013Z,5.05
2022-11-17T16:16:33.254Z,4.63
2022-11-17T16:19:00.033Z,3.88
2022-11-17T16:21:26.575Z,2.90
2022-11-17T16:23:55.811Z,4.07
2022-11-17T16:26:24.286Z,4.03
2022-11-17T16:29:04.198Z,3.95
2022-11-17T16:31:33.048Z,3.75
2022-11-17T16:34:01.294Z,4.93
2022-11-17T16:36:34.573Z,4.72
2022-11-17T16:39:03.114Z,4.78
2022-11-17T16:41:33.031Z,6.43
2022-11-17T16:44:00.473Z,8.32
2022-11-17T16:46:29.828Z,12.02
2022-11-17T16:49:00.325Z,12.73
2022-11-17T16:51:26.832Z,10.02
2022-11-17T16:53:58.759Z,11.20
2022-11-17T16:56:25.628Z,11.90
2022-11-17T16:58:55.883Z,11.20
2022-11-17T17:01:27.700Z,9.88
2022-11-17T17:04:08.205Z,9.40
2022-11-17T17:06:37.138Z,10.88
2022-11-17T17:09:08.300Z,12.48
2022-11-17T17:11:38.956Z,11.82
2022-11-17T17:14:08.947Z,10.90
2022-11-17T17:16:36.998Z,10.65
2022-11-17T17:19:05.869Z,8.90
2022-11-17T17:21:33.339Z,9.30
2022-11-17T17:24:00.221Z,7.40
2022-11-17T17:26:28.904Z,7.00
2022-11-17T17:28:57.121Z,7.97
2022-11-17T17:31:25.078Z,9.88
2022-11-17T17:33:54.334Z,9.02
2022-11-17T17:36:23.257Z,9.23
2022-11-17T17:38:55.538Z,9.68
2022-11-17T17:41:25.268Z,8.80
2022-11-17T17:44:06.540Z,7.68
2022-11-17T17:46:38.458Z,8.80
2022-11-17T17:49:05.980Z,8.77
2022-11-17T17:51:36.986Z,8.73
2022-11-17T17:54:03.483Z,7.55
2022-11-17T17:56:32.607Z,9.88
2022-11-17T17:58:59.162Z,8.07
2022-11-17T18:01:29.342Z,10.05
2022-11-17T18:04:02.527Z,11.80
2022-11-17T18:06:28.891Z,11.27
2022-11-17T18:08:56.317Z,10.27
2022-11-17T18:11:24.353Z,9.90
2022-11-17T18:13:52.630Z,7.63
2022-11-17T18:16:27.089Z,7.85
2022-11-17T18:19:01.977Z,6.80
2022-11-17T18:21:28.721Z,7.32
2022-11-17T18:23:56.129Z,7.45
2022-11-17T18:26:24.742Z,7.30
2022-11-17T18:29:02.999Z,6.90
2022-11-17T18:31:31.994Z,7.05
2022-11-17T18:34:01.335Z,6.90
2022-11-17T18:36:29.068Z,6.70
2022-11-17T18:38:57.888Z,7.18
2022-11-17T18:41:25.836Z,6.85
2022-11-17T18:43:52.495Z,6.13
2022-11-17T18:46:21.642Z,6.85
2022-11-17T18:48:51.599Z,5.63
2022-11-17T18:51:21.249Z,14.82
2022-11-17T18:53:49.562Z,19.23
2022-11-17T18:56:18.653Z,20.13
2022-11-17T18:58:45.495Z,20.15
2022-11-17T19:01:14.796Z,16.92
2022-11-17T19:03:42.874Z,17.38
2022-11-17T19:06:10.343Z,18.88
2022-11-17T19:08:37.133Z,17.60
2022-11-17T19:11:06.434Z,16.08
2022-11-17T19:13:35.453Z,9.88
2022-11-17T19:16:06.168Z,9.02
2022-11-17T19:18:33.058Z,10.05
2022-11-17T19:21:13.561Z,10.80
2022-11-17T19:23:43.449Z,9.88
2022-11-17T19:26:14.664Z,10.30
2022-11-17T19:28:41.519Z,10.73
2022-11-17T19:31:13.923Z,9.55
2022-11-17T19:33:41.460Z,9.35
2022-11-17T19:36:19.586Z,10.43
2022-11-17T19:38:50.474Z,10.77
2022-11-17T19:41:22.682Z,11.07
2022-11-17T19:43:52.593Z,10.75
2022-11-17T19:46:18.996Z,11.60
2022-11-17T19:48:45.703Z,10.05
2022-11-17T19:51:23.619Z,11.15
2022-11-17T19:53:54.664Z,10.98
2022-11-17T19:56:21.734Z,11.88
2022-11-17T19:58:49.739Z,15.60
2022-11-17T20:01:42.381Z,15.40
2022-11-17T20:04:09.113Z,11.82
2022-11-17T20:06:37.868Z,13.63
2022-11-17T20:09:09.570Z,10.88
2022-11-17T20:11:36.491Z,11.75
2022-11-17T20:14:03.400Z,11.50
2022-11-17T20:16:32.945Z,10.82
2022-11-17T20:19:01.444Z,12.43
2022-11-17T20:21:29.276Z,12.10
2022-11-17T20:23:56.304Z,11.40
2022-11-17T20:26:24.776Z,12.48
2022-11-17T20:28:52.511Z,14.40
2022-11-17T20:31:24.631Z,14.25
2022-11-17T20:33:52.177Z,12.52
2022-11-17T20:36:20.508Z,13.27
2022-11-17T20:38:54.142Z,11.48
2022-11-17T20:43:52.435Z,9.35
2022-11-17T20:46:20.136Z,8.77
2022-11-17T20:48:46.809Z,8.60
2022-11-17T20:51:18.724Z,10.25
2022-11-17T20:53:45.428Z,11.45
2022-11-17T20:56:13.663Z,11.57
2022-11-17T20:58:40.194Z,11.98
2022-11-17T21:01:24.651Z,11.88
2022-11-17T21:03:51.309Z,12.52
2022-11-17T21:06:18.995Z,12.02
2022-11-17T21:08:46.370Z,11.45
2022-11-17T21:11:34.382Z,10.38
2022-11-17T21:14:00.823Z,10.63
2022-11-17T21:16:27.286Z,10.68
2022-11-17T21:18:53.819Z,10.40
2022-11-17T21:21:20.319Z,10.48
2022-11-17T21:23:46.723Z,11.13
2022-11-17T21:26:18.417Z,12.63
2022-11-17T21:28:45.535Z,12.50
2022-11-17T21:31:15.095Z,12.77
2022-11-17T21:33:42.542Z,12.88
2022-11-17T21:36:14.440Z,11.60
2022-11-17T21:38:41.716Z,13.02
2022-11-17T21:41:11.635Z,13.90
2022-11-17T21:43:39.696Z,11.48
2022-11-17T21:46:09.089Z,16.80
2022-11-17T21:48:37.126Z,16.98
2022-11-17T21:51:05.073Z,14.40
2022-11-17T21:53:32.020Z,14.32
2022-11-17T21:56:05.924Z,15.45
2022-11-17T21:58:33.710Z,14.30
2022-11-17T22:01:08.337Z,16.33
2022-11-17T22:03:34.829Z,16.70
2022-11-17T22:06:12.035Z,16.73
2022-11-17T22:08:40.095Z,14.23
2022-11-17T22:11:11.924Z,13.93
2022-11-17T22:13:39.255Z,11.70
2022-11-17T22:16:14.002Z,10.32
2022-11-17T22:18:41.338Z,11.13
2022-11-17T22:21:08.557Z,11.77
2022-11-17T22:23:35.419Z,11.70
2022-11-17T22:26:05.053Z,11.13
2022-11-17T22:28:31.480Z,11.98
2022-11-17T22:30:58.045Z,12.10
2022-11-17T22:33:25.134Z,10.70
2022-11-17T22:35:51.706Z,11.40
2022-11-17T22:38:18.255Z,10.68
2022-11-17T22:40:45.126Z,9.82
2022-11-17T22:43:14.825Z,8.50
2022-11-17T22:45:41.998Z,7.72
2022-11-17T22:48:09.108Z,9.65
2022-11-17T22:50:36.305Z,10.50
2022-11-17T22:53:03.277Z,9.95
2022-11-17T22:55:29.771Z,10.48
2022-11-17T22:57:56.201Z,11.50
2022-11-17T23:00:22.925Z,11.68
2022-11-17T23:02:49.474Z,12.55
2022-11-17T23:05:16.593Z,21.83
2022-11-17T23:07:43.263Z,13.93
2022-11-17T23:10:10.651Z,12.90
2022-11-17T23:12:37.155Z,12.82
2022-11-17T23:15:03.986Z,11.25
2022-11-17T23:17:30.390Z,11.90
2022-11-17T23:19:56.829Z,10.95
2022-11-17T23:22:23.214Z,10.18
2022-11-17T23:24:49.632Z,9.95
2022-11-17T23:27:16.041Z,9.48
2022-11-17T23:29:42.494Z,7.47
2022-11-17T23:32:09.481Z,7.72
2022-11-17T23:34:36.349Z,7.90
2022-11-17T23:37:04.095Z,8.40
2022-11-17T23:39:30.698Z,8.10
2022-11-17T23:41:57.182Z,8.48
2022-11-17T23:44:23.571Z,8.07
2022-11-17T23:46:49.968Z,7.60
2022-11-17T23:49:16.827Z,9.02
2022-11-17T23:51:43.387Z,8.27
2022-11-17T23:54:13.269Z,7.63
2022-11-17T23:56:40.322Z,9.13
2022-11-17T23:59:08.179Z,7.50
